Allandale, Florida
Current Conditions -  °F | °C
As of 10:53 PM on Wednesday 26 Nov 2014 (Local Time) from KDAB Reporting Station
Few Clouds Few Clouds  
Wind Chill: 11°   Ceiling: Unl
Heat Index: 11°   Visibility: 10mi
Dew Point:   Wind: 6mph
Humidity: 86%   Direction: 270°W
Pressure: 30.21"   Gusts: NA
Location:  29.1486°N, 81.0301°W
Report Text: KDAB 270353Z 27005KT 10SM FEW200 11/08 A3021 RMK AO2 SLP227 T01060083
Loading
Personal Weather Stations






























Interactive Weather Map New forecast layout! Learn more

10-Day Weather Forecast

Advertisements
Track Severe Weather on mobile